Time;durP1;ratioP1;P1;durP2;ratioP2;P2;SDS_P1;SDS_P2;PMS_P1;PMS_P2;Temp;Humidity;BMP_temperature;BMP_pressure;BME280_temperature;BME280_humidity;BME280_pressure;Samples;Min_cycle;Max_cycle;Signal;HPM_P1;HPM_P2
2022/03/15 00:02:22;;;;;;;76.85;38.10;;;;;;;-12.73;62.70;100275.28;4939439;29;20469;-83
2022/03/15 00:04:48;;;;;;;77.43;39.65;;;;;;;-12.85;62.68;100274.94;4939403;29;20058;-83
2022/03/15 00:07:16;;;;;;;77.57;39.00;;;;;;;-12.99;63.04;100275.41;4939417;29;20035;-83
2022/03/15 00:09:42;;;;;;;76.25;40.03;;;;;;;-13.04;63.25;100291.56;4956872;29;20053;-83
2022/03/15 00:12:10;;;;;;;83.20;40.55;;;;;;;-13.08;63.50;100293.16;4955476;29;20065;-84
2022/03/15 00:14:37;;;;;;;83.82;40.35;;;;;;;-13.06;63.18;100281.19;4939641;29;20039;-83
2022/03/15 00:17:06;;;;;;;80.22;40.05;;;;;;;-13.06;62.81;100286.34;4963030;29;20051;-83
2022/03/15 00:19:33;;;;;;;69.68;37.35;;;;;;;-12.93;62.56;100289.31;4957104;29;20106;-83
2022/03/15 00:21:59;;;;;;;89.72;38.10;;;;;;;-12.94;62.88;100295.25;4947773;29;20054;-83
2022/03/15 00:24:25;;;;;;;76.22;37.45;;;;;;;-13.04;62.86;100287.28;4955512;29;20082;-83
2022/03/15 00:26:53;;;;;;;68.88;36.10;;;;;;;-13.13;63.31;100286.13;4955174;29;20082;-82
2022/03/15 00:29:22;;;;;;;70.03;34.30;;;;;;;-13.11;62.90;100284.47;4939126;29;20050;-82
2022/03/15 00:31:49;;;;;;;63.72;32.47;;;;;;;-13.15;62.93;100283.50;4955953;29;20415;-83
2022/03/15 00:34:15;;;;;;;55.97;31.65;;;;;;;-13.15;62.95;100283.50;4939160;29;20133;-81
2022/03/15 00:36:41;;;;;;;62.30;31.92;;;;;;;-13.19;62.58;100276.53;4939007;29;20047;-82
2022/03/15 00:39:08;;;;;;;54.03;28.65;;;;;;;-13.13;62.60;100289.56;4938855;29;20126;-82
2022/03/15 00:41:35;;;;;;;51.85;28.80;;;;;;;-13.16;62.50;100276.63;4939112;29;20097;-83
2022/03/15 00:44:01;;;;;;;57.30;29.02;;;;;;;-13.13;62.51;100275.81;4938597;29;20047;-81
2022/03/15 00:46:27;;;;;;;56.63;26.45;;;;;;;-13.10;62.04;100284.50;4923273;29;20047;-80
2022/03/15 00:48:53;;;;;;;45.67;25.35;;;;;;;-13.03;62.18;100298.44;4938560;29;20039;-84
2022/03/15 00:51:19;;;;;;;36.53;20.40;;;;;;;-13.11;62.50;100295.63;4954829;29;20050;-81
2022/03/15 00:53:45;;;;;;;41.58;19.25;;;;;;;-13.40;63.64;100294.78;4922638;29;20046;-82
2022/03/15 00:56:12;;;;;;;33.70;17.85;;;;;;;-13.61;64.21;100292.41;4937720;29;20134;-80
2022/03/15 00:58:38;;;;;;;40.40;19.45;;;;;;;-13.65;64.39;100300.88;4938407;29;20135;-82
2022/03/15 01:01:08;;;;;;;41.13;21.15;;;;;;;-13.70;64.52;100302.38;4954373;29;20043;-81
2022/03/15 01:03:34;;;;;;;46.20;22.65;;;;;;;-13.72;63.60;100296.34;4938339;29;20058;-82
2022/03/15 01:06:00;;;;;;;42.13;23.80;;;;;;;-13.60;63.42;100301.88;4954377;29;20078;-83
2022/03/15 01:08:25;;;;;;;43.00;22.50;;;;;;;-13.53;63.10;100306.38;4955536;29;20049;-82
2022/03/15 01:10:51;;;;;;;45.65;23.02;;;;;;;-13.52;62.85;100300.41;4938216;29;20141;-82
2022/03/15 01:13:18;;;;;;;43.42;22.77;;;;;;;-13.47;62.46;100308.25;4950755;29;20063;-83
2022/03/15 01:15:45;;;;;;;48.58;24.65;;;;;;;-13.43;62.54;100311.81;4935339;29;20098;-82
2022/03/15 01:18:12;;;;;;;36.72;21.58;;;;;;;-13.45;62.30;100303.19;4935223;29;20055;-82
2022/03/15 01:20:39;;;;;;;48.17;24.80;;;;;;;-13.49;61.64;100297.06;4919135;29;20055;-83
2022/03/15 01:23:06;;;;;;;48.90;25.05;;;;;;;-13.52;61.64;100292.69;4934802;29;20047;-84
2022/03/15 01:25:32;;;;;;;45.25;24.67;;;;;;;-13.51;61.80;100293.56;4950905;29;20055;-83
2022/03/15 01:27:59;;;;;;;55.58;25.23;;;;;;;-13.45;61.75;100313.47;4950925;29;20043;-82
2022/03/15 01:30:25;;;;;;;51.75;25.75;;;;;;;-13.42;61.83;100308.41;4936396;29;20051;-82
2022/03/15 01:32:52;;;;;;;44.58;25.88;;;;;;;-13.38;61.71;100313.72;4934899;29;20067;-83
2022/03/15 01:35:18;;;;;;;55.42;29.08;;;;;;;-13.39;61.08;100308.50;4936147;29;20228;-82
2022/03/15 01:37:43;;;;;;;53.17;27.67;;;;;;;-13.39;61.20;100313.66;4935787;29;20040;-81
2022/03/15 01:40:10;;;;;;;50.00;27.08;;;;;;;-13.43;61.16;100306.66;4935401;29;20071;-82
2022/03/15 01:42:38;;;;;;;52.33;28.80;;;;;;;-13.45;60.98;100314.34;4951972;29;20126;-84
2022/03/15 01:45:05;;;;;;;57.83;31.08;;;;;;;-13.49;60.93;100315.94;4936642;29;20058;-82
2022/03/15 01:47:32;;;;;;;54.25;30.45;;;;;;;-13.54;61.08;100308.88;4934379;29;20591;-83
2022/03/15 01:49:58;;;;;;;71.85;33.30;;;;;;;-13.52;60.88;100320.97;4935650;29;20126;-82
2022/03/15 01:52:24;;;;;;;58.13;31.15;;;;;;;-13.56;60.36;100324.28;4935854;29;20079;-82
2022/03/15 01:54:50;;;;;;;62.60;32.70;;;;;;;-13.62;60.39;100320.63;4950482;29;20524;-83
2022/03/15 01:57:18;;;;;;;72.43;34.13;;;;;;;-13.63;60.30;100318.91;4934573;29;20051;-82
2022/03/15 01:59:44;;;;;;;103.53;42.97;;;;;;;-13.63;60.79;100314.63;4918679;29;20173;-82
2022/03/15 02:02:12;;;;;;;96.68;44.92;;;;;;;-13.70;60.55;100315.25;4934600;29;20059;-81
2022/03/15 02:04:38;;;;;;;98.97;46.65;;;;;;;-13.72;60.37;100324.63;4934602;29;20052;-83
2022/03/15 02:07:07;;;;;;;110.05;54.33;;;;;;;-13.74;60.86;100314.25;4953091;28;20049;-82
2022/03/15 02:09:34;;;;;;;140.73;62.13;;;;;;;-13.69;60.28;100316.97;4922390;29;20500;-82
2022/03/15 02:12:00;;;;;;;176.68;78.05;;;;;;;-13.74;60.24;100315.97;4941099;28;20492;-82
2022/03/15 02:14:27;;;;;;;166.50;79.85;;;;;;;-13.73;60.38;100315.13;4957369;29;20081;-83
2022/03/15 02:16:54;;;;;;;182.50;78.07;;;;;;;-13.76;60.84;100313.38;4957493;29;20502;-82
2022/03/15 02:19:21;;;;;;;188.32;85.75;;;;;;;-13.77;60.34;100321.88;4957377;29;20047;-83
2022/03/15 02:21:47;;;;;;;188.95;84.32;;;;;;;-13.78;60.52;100316.69;4941458;29;20089;-83
2022/03/15 02:24:13;;;;;;;162.90;75.28;;;;;;;-13.79;60.42;100322.66;4925348;29;20047;-81
2022/03/15 02:26:39;;;;;;;176.18;75.72;;;;;;;-13.83;60.28;100315.69;4951007;29;20050;-81
2022/03/15 02:29:05;;;;;;;180.00;71.75;;;;;;;-13.83;60.06;100325.97;4941439;29;20043;-85
2022/03/15 02:31:31;;;;;;;173.23;66.20;;;;;;;-13.86;60.47;100326.72;4940965;29;20043;-82
2022/03/15 02:33:57;;;;;;;166.18;69.97;;;;;;;-13.89;60.71;100328.31;4929292;29;20044;-84
2022/03/15 02:36:23;;;;;;;152.80;68.15;;;;;;;-13.92;60.98;100326.50;4938096;29;20093;-80
2022/03/15 02:38:49;;;;;;;138.63;66.55;;;;;;;-13.84;60.94;100339.59;4951283;29;20044;-83
2022/03/15 02:41:15;;;;;;;149.20;63.33;;;;;;;-13.90;60.75;100324.00;4925418;29;20046;-84
2022/03/15 02:43:44;;;;;;;161.63;59.05;;;;;;;-13.93;60.59;100334.19;4953594;29;20051;-83
2022/03/15 02:46:10;;;;;;;144.85;45.85;;;;;;;-13.99;60.12;100335.72;4938530;29;20046;-81
2022/03/15 02:48:36;;;;;;;99.22;45.63;;;;;;;-14.17;60.99;100329.97;4943902;29;20071;-80
2022/03/15 02:51:07;;;;;;;117.50;47.70;;;;;;;-14.24;60.39;100338.25;4944161;29;20107;-83
2022/03/15 02:53:34;;;;;;;135.07;58.15;;;;;;;-14.17;61.09;100344.50;4949748;29;20048;-83
2022/03/15 02:56:00;;;;;;;132.00;50.75;;;;;;;-14.13;61.17;100331.81;4943405;29;20059;-80
2022/03/15 02:58:26;;;;;;;120.45;50.47;;;;;;;-14.03;61.44;100338.13;4938875;29;20047;-81
2022/03/15 03:00:52;;;;;;;157.80;52.75;;;;;;;-13.93;61.40;100344.44;4937494;29;20134;-79
2022/03/15 03:03:18;;;;;;;125.90;51.35;;;;;;;-13.93;60.96;100336.75;4938613;29;20094;-82
2022/03/15 03:05:44;;;;;;;120.78;48.70;;;;;;;-13.98;61.70;100334.91;4921317;29;20050;-80
2022/03/15 03:08:10;;;;;;;112.88;45.78;;;;;;;-14.03;62.44;100343.25;4921224;29;20043;-81
2022/03/15 03:10:36;;;;;;;150.85;44.30;;;;;;;-13.92;62.50;100346.19;4921220;29;20048;-80
2022/03/15 03:13:02;;;;;;;124.72;46.53;;;;;;;-13.90;62.39;100339.41;4938267;29;20535;-78
2022/03/15 03:15:32;;;;;;;130.23;48.28;;;;;;;-14.08;62.56;100355.94;4936866;29;20408;-82
2022/03/15 03:17:58;;;;;;;124.47;45.33;;;;;;;-14.22;63.45;100349.44;4936245;29;20051;-81
2022/03/15 03:20:24;;;;;;;177.57;62.60;;;;;;;-14.33;63.85;100355.91;4937156;29;20139;-79
2022/03/15 03:22:50;;;;;;;151.77;57.90;;;;;;;-14.51;64.56;100346.78;4943997;29;20047;-82
2022/03/15 03:25:17;;;;;;;184.40;63.88;;;;;;;-14.61;65.34;100357.50;4924781;29;20047;-78
2022/03/15 03:27:43;;;;;;;158.93;53.05;;;;;;;-14.75;65.77;100362.13;4940282;29;20113;-80
2022/03/15 03:30:09;;;;;;;117.38;49.10;;;;;;;-14.84;66.54;100358.34;4941120;29;20050;-85
2022/03/15 03:32:35;;;;;;;190.95;64.57;;;;;;;-14.72;66.36;100372.50;4924662;29;20487;-83
2022/03/15 03:35:04;;;;;;;188.60;63.42;;;;;;;-14.56;65.94;100370.50;4957816;29;20047;-81
2022/03/15 03:37:32;;;;;;;176.10;65.07;;;;;;;-14.49;66.34;100368.19;4940042;29;20455;-81
2022/03/15 03:39:59;;;;;;;172.27;58.85;;;;;;;-14.19;65.50;100372.69;4908036;29;20070;-81
2022/03/15 03:42:25;;;;;;;210.13;67.70;;;;;;;-14.10;65.55;100374.69;4939971;29;20645;-85
2022/03/15 03:44:51;;;;;;;215.63;65.40;;;;;;;-14.09;65.94;100374.75;4956283;29;20054;-87
2022/03/15 03:47:18;;;;;;;183.85;65.63;;;;;;;-13.90;65.13;100370.25;4940227;29;20043;-82
2022/03/15 03:49:44;;;;;;;204.57;65.45;;;;;;;-13.76;64.88;100374.19;4908323;29;20050;-80
2022/03/15 03:52:12;;;;;;;189.10;67.50;;;;;;;-13.68;65.18;100364.16;4915863;29;20135;-80
2022/03/15 03:54:38;;;;;;;206.65;62.92;;;;;;;-13.40;64.25;100383.91;4934822;29;20058;-81
2022/03/15 03:57:04;;;;;;;206.88;62.92;;;;;;;-13.25;63.84;100375.00;4957052;29;20130;-80
2022/03/15 03:59:30;;;;;;;174.20;61.95;;;;;;;-13.08;63.43;100372.06;4940402;29;20130;-82
2022/03/15 04:01:56;;;;;;;203.65;67.57;;;;;;;-12.92;63.01;100368.25;4929873;29;20051;-81
2022/03/15 04:04:24;;;;;;;178.13;61.90;;;;;;;-12.71;62.80;100379.22;4954960;29;20051;-83
2022/03/15 04:06:50;;;;;;;180.40;62.63;;;;;;;-12.56;62.28;100374.50;4932311;29;20229;-81
2022/03/15 04:09:16;;;;;;;201.73;65.57;;;;;;;-12.25;61.91;100390.84;4927298;29;20086;-83
2022/03/15 04:11:45;;;;;;;225.18;66.20;;;;;;;-12.05;61.13;100394.81;4927989;29;20050;-80
2022/03/15 04:14:11;;;;;;;208.85;67.18;;;;;;;-11.92;60.67;100405.47;4943901;29;20062;-80
2022/03/15 04:16:38;;;;;;;187.70;67.43;;;;;;;-11.82;60.39;100381.66;4948067;29;20043;-81
2022/03/15 04:19:05;;;;;;;198.80;67.30;;;;;;;-11.87;60.08;100372.97;4947283;29;20058;-82
2022/03/15 04:21:31;;;;;;;227.25;74.43;;;;;;;-11.86;59.76;100369.53;4932272;29;20040;-81
2022/03/15 04:23:57;;;;;;;210.73;66.97;;;;;;;-11.66;60.03;100393.22;4950148;29;20165;-81
2022/03/15 04:26:24;;;;;;;197.40;65.90;;;;;;;-11.51;59.88;100389.38;4938794;29;20043;-79
2022/03/15 04:28:52;;;;;;;202.05;72.15;;;;;;;-11.42;59.00;100385.25;4941198;29;20047;-80
2022/03/15 04:31:18;;;;;;;195.88;68.47;;;;;;;-11.29;58.92;100400.19;4957243;29;20059;-81
2022/03/15 04:33:45;;;;;;;220.63;67.50;;;;;;;-11.63;58.42;100393.31;4957845;29;20047;-82
2022/03/15 04:36:11;;;;;;;188.07;62.30;;;;;;;-11.80;58.93;100403.22;4942021;29;20178;-80
2022/03/15 04:38:39;;;;;;;173.32;62.63;;;;;;;-11.86;59.54;100385.88;4921856;29;20040;-81
2022/03/15 04:41:06;;;;;;;191.57;60.50;;;;;;;-11.85;59.38;100402.22;4920692;29;20423;-83
2022/03/15 04:43:32;;;;;;;182.77;66.60;;;;;;;-11.87;59.27;100394.47;4935762;29;20040;-81
2022/03/15 04:45:59;;;;;;;165.43;63.20;;;;;;;-11.79;59.52;100386.91;4935838;29;20048;-81
2022/03/15 04:48:25;;;;;;;177.63;63.80;;;;;;;-11.83;59.25;100410.88;4904561;29;20079;-81
2022/03/15 04:50:51;;;;;;;112.22;47.42;;;;;;;-12.26;60.62;100407.09;4919850;29;20126;-81
2022/03/15 04:53:18;;;;;;;139.38;51.08;;;;;;;-12.31;61.19;100411.25;4935650;29;20555;-82
2022/03/15 04:55:48;;;;;;;74.82;28.55;;;;;;;-12.46;61.34;100401.38;4951349;29;20071;-82
2022/03/15 04:58:14;;;;;;;75.78;34.50;;;;;;;-12.58;62.03;100425.06;4935313;29;20039;-82
2022/03/15 05:00:40;;;;;;;143.82;51.22;;;;;;;-12.65;62.63;100405.13;4951676;29;20059;-82
2022/03/15 05:03:06;;;;;;;119.43;46.83;;;;;;;-12.51;62.64;100414.13;4935501;29;20074;-83
2022/03/15 05:05:32;;;;;;;133.77;49.67;;;;;;;-12.30;62.55;100419.03;4936166;29;20079;-82
2022/03/15 05:07:58;;;;;;;112.38;44.90;;;;;;;-12.46;63.35;100415.97;4919126;29;20051;-81
2022/03/15 05:13:09;;;;;;;147.13;60.75;;;;;;;-12.42;63.90;100407.50;4935171;29;20070;-80
2022/03/15 05:15:35;;;;;;;96.32;42.65;;;;;;;-12.35;63.98;100409.44;4903228;29;20044;-80
2022/03/15 05:18:04;;;;;;;153.02;62.15;;;;;;;-12.45;64.27;100412.56;4903196;29;20043;-79
2022/03/15 05:20:30;;;;;;;108.78;47.17;;;;;;;-12.30;63.74;100419.03;4934991;29;20047;-82
2022/03/15 05:22:56;;;;;;;109.32;52.38;;;;;;;-12.07;63.28;100422.28;4934897;29;20044;-83
2022/03/15 05:25:22;;;;;;;182.30;69.28;;;;;;;-11.80;62.84;100410.94;4918979;29;20079;-82
2022/03/15 05:27:48;;;;;;;159.68;68.15;;;;;;;-11.38;62.26;100410.31;4918813;29;20043;-81
2022/03/15 05:30:17;;;;;;;121.18;56.65;;;;;;;-11.32;61.03;100410.44;4919225;29;20523;-82
2022/03/15 05:32:43;;;;;;;136.43;59.13;;;;;;;-11.24;61.24;100414.09;4919012;29;20047;-80
2022/03/15 05:35:09;;;;;;;121.28;57.25;;;;;;;-10.87;60.97;100417.53;4903164;29;20048;-81
2022/03/15 05:37:36;;;;;;;133.18;57.60;;;;;;;-10.63;60.94;100410.38;4918895;29;20499;-82
2022/03/15 05:40:03;;;;;;;123.93;53.33;;;;;;;-10.19;60.91;100423.34;4934390;29;20467;-81
2022/03/15 05:42:29;;;;;;;116.03;55.58;;;;;;;-9.91;60.13;100413.56;4934145;29;20051;-84
2022/03/15 05:44:55;;;;;;;116.85;49.47;;;;;;;-9.86;59.95;100417.09;4903239;29;20529;-81
2022/03/15 05:47:21;;;;;;;109.43;47.28;;;;;;;-9.92;59.69;100404.06;4950367;29;20044;-81
2022/03/15 05:49:47;;;;;;;98.25;42.15;;;;;;;-9.76;59.15;100416.44;4902688;29;20396;-81
2022/03/15 05:52:13;;;;;;;108.57;49.47;;;;;;;-9.43;58.71;100417.91;4918706;29;20459;-81
2022/03/15 05:54:39;;;;;;;84.22;45.33;;;;;;;-9.33;58.17;100409.44;4934723;29;20491;-80
2022/03/15 05:57:05;;;;;;;104.32;48.10;;;;;;;-8.97;58.20;100413.50;4919029;29;20051;-81
2022/03/15 05:59:31;;;;;;;98.70;47.90;;;;;;;-8.63;57.64;100420.06;4951099;29;20495;-82
2022/03/15 06:01:57;;;;;;;88.72;47.17;;;;;;;-8.59;56.56;100419.25;4919206;29;20138;-80
2022/03/15 06:04:26;;;;;;;132.30;55.70;;;;;;;-8.39;57.30;100412.59;4950407;29;20047;-82
2022/03/15 06:06:55;;;;;;;98.75;48.28;;;;;;;-8.41;55.96;100427.28;4918539;29;20043;-81
2022/03/15 06:09:25;;;;;;;102.63;53.67;;;;;;;-8.51;55.75;100419.34;4934292;29;20051;-81
2022/03/15 06:11:51;;;;;;;;;;;;;;;-8.57;55.91;100420.16;4935854;28;20419;-81
2022/03/15 06:14:19;;;;;;;89.63;44.70;;;;;;;-8.70;55.88;100419.09;4937377;29;19926;-81
2022/03/15 06:16:45;;;;;;;105.50;53.13;;;;;;;-8.71;56.80;100425.13;4937678;29;20090;-82
2022/03/15 06:19:11;;;;;;;93.63;47.65;;;;;;;-8.75;56.75;100420.75;4937928;29;20467;-82
2022/03/15 06:21:38;;;;;;;76.68;38.58;;;;;;;-8.75;56.23;100418.16;4937284;29;20050;-81
2022/03/15 06:24:04;;;;;;;92.85;41.10;;;;;;;-8.59;55.90;100422.72;4937355;29;20047;-82
2022/03/15 06:26:30;;;;;;;106.03;51.88;;;;;;;-8.36;55.74;100419.53;4937129;29;20098;-84
2022/03/15 06:28:58;;;;;;;120.82;51.97;;;;;;;-8.11;55.04;100436.31;4937240;29;20517;-83
2022/03/15 06:31:24;;;;;;;104.03;51.50;;;;;;;-7.71;54.92;100427.28;4937152;29;20055;-81
2022/03/15 06:33:50;;;;;;;107.40;53.83;;;;;;;-7.43;53.70;100432.75;4937312;29;20513;-83
2022/03/15 06:36:16;;;;;;;104.93;51.25;;;;;;;-7.23;53.45;100430.34;4952976;29;20051;-83
2022/03/15 06:38:42;;;;;;;128.05;50.97;;;;;;;-7.00;52.92;100427.94;4954033;29;20039;-83
2022/03/15 06:41:11;;;;;;;99.03;53.20;;;;;;;-7.14;52.43;100413.13;4937013;29;20073;-84
2022/03/15 06:43:39;;;;;;;94.22;49.72;;;;;;;-7.07;52.77;100418.34;4937104;29;20047;-82
2022/03/15 06:46:06;;;;;;;90.57;49.40;;;;;;;-6.89;52.54;100419.38;4937330;29;20554;-82
2022/03/15 06:48:32;;;;;;;96.93;47.47;;;;;;;-6.83;52.44;100421.16;4937103;28;20051;-82
2022/03/15 06:50:58;;;;;;;100.82;46.13;;;;;;;-6.65;51.65;100410.91;4921249;29;20050;-82
2022/03/15 06:53:24;;;;;;;94.63;48.33;;;;;;;-6.48;51.90;100413.59;4938742;29;20039;-82
2022/03/15 06:55:50;;;;;;;83.07;41.92;;;;;;;-6.42;50.79;100415.38;4924821;29;20053;-82
2022/03/15 06:58:17;;;;;;;73.53;37.90;;;;;;;-6.26;50.92;100417.19;4924818;29;20182;-82
2022/03/15 07:00:44;;;;;;;82.45;40.55;;;;;;;-6.12;50.22;100414.66;4924833;29;20039;-82
2022/03/15 07:03:10;;;;;;;72.60;35.30;;;;;;;-5.77;49.83;100419.97;4956760;29;20491;-82
2022/03/15 07:05:36;;;;;;;68.03;34.97;;;;;;;-5.53;49.38;100423.50;4957558;29;20106;-82
2022/03/15 07:08:04;;;;;;;74.88;34.47;;;;;;;-5.52;48.56;100423.53;4924574;29;20048;-83
2022/03/15 07:10:30;;;;;;;64.57;34.30;;;;;;;-5.14;48.24;100427.94;4957534;29;20502;-83
2022/03/15 07:12:56;;;;;;;66.85;34.63;;;;;;;-4.99;47.62;100427.06;4940688;29;20067;-85
2022/03/15 07:15:22;;;;;;;58.25;32.88;;;;;;;-4.86;47.08;100423.56;4940780;29;20039;-82
2022/03/15 07:17:50;;;;;;;72.90;36.80;;;;;;;-4.57;47.97;100420.09;4925675;29;20109;-84
2022/03/15 07:20:16;;;;;;;75.75;36.78;;;;;;;-4.30;47.02;100425.25;4925571;29;20047;-83
2022/03/15 07:22:42;;;;;;;64.82;34.80;;;;;;;-4.35;45.90;100415.72;4940903;29;20172;-83
2022/03/15 07:25:08;;;;;;;65.15;35.05;;;;;;;-3.97;46.80;100423.41;4957853;29;20548;-82
2022/03/15 07:27:34;;;;;;;67.78;35.20;;;;;;;-3.87;46.28;100416.41;4957074;29;20054;-82
2022/03/15 07:30:00;;;;;;;73.72;34.35;;;;;;;-3.57;46.16;100418.00;4959385;29;20490;-81
2022/03/15 07:32:26;;;;;;;67.65;33.63;;;;;;;-3.44;45.74;100415.31;4931008;29;20043;-82
2022/03/15 07:34:52;;;;;;;58.30;35.20;;;;;;;-3.49;44.91;100419.72;4928113;29;20035;-83
2022/03/15 07:37:18;;;;;;;64.07;31.60;;;;;;;-3.37;44.83;100416.16;4959228;29;20082;-83
2022/03/15 07:39:46;;;;;;;65.70;33.75;;;;;;;-3.19;44.25;100426.50;4956277;29;20525;-82
2022/03/15 07:42:13;;;;;;;61.60;33.63;;;;;;;-3.39;44.58;100412.66;4940316;29;20074;-82
2022/03/15 07:44:42;;;;;;;67.35;33.25;;;;;;;-3.30;44.79;100423.09;4924575;29;20098;-82
2022/03/15 07:47:10;;;;;;;56.35;31.75;;;;;;;-3.00;44.59;100415.91;4941708;29;20050;-82
2022/03/15 07:49:36;;;;;;;63.17;33.72;;;;;;;-2.78;43.46;100411.38;4960771;28;20058;-82
2022/03/15 07:52:03;;;;;;;57.58;29.92;;;;;;;-2.50;42.88;100406.72;4935897;29;20066;-81
2022/03/15 07:54:29;;;;;;;67.47;35.38;;;;;;;-2.88;42.85;100413.19;4949813;29;20047;-82
2022/03/15 07:56:55;;;;;;;83.20;33.60;;;;;;;-2.91;44.06;100414.94;4940993;29;20074;-83
2022/03/15 07:59:22;;;;;;;55.97;30.38;;;;;;;-2.58;43.48;100417.28;4956874;29;20042;-83
2022/03/15 08:01:51;;;;;;;55.28;26.33;;;;;;;-2.47;42.46;100411.94;4908257;29;20407;-81
2022/03/15 08:04:17;;;;;;;44.38;26.77;;;;;;;-2.51;42.14;100405.00;4956625;28;20407;-82
2022/03/15 08:06:43;;;;;;;52.90;23.83;;;;;;;-3.08;42.47;100404.63;4939565;29;20053;-83
2022/03/15 08:09:09;;;;;;;49.25;27.15;;;;;;;-3.00;42.90;100421.13;4924620;29;20046;-82
2022/03/15 08:11:35;;;;;;;47.60;28.30;;;;;;;-3.00;43.03;100422.00;4924587;29;20521;-82
2022/03/15 08:14:03;;;;;;;56.08;29.48;;;;;;;-3.11;43.35;100422.97;4937404;29;20067;-82
2022/03/15 08:16:29;;;;;;;43.08;23.48;;;;;;;-2.79;43.33;100415.72;4938876;29;20195;-82
2022/03/15 08:18:55;;;;;;;49.55;24.98;;;;;;;-2.79;41.98;100430.53;4940903;29;20075;-82
2022/03/15 08:21:47;;;;;;;51.90;27.27;;;;;;;-2.65;42.40;100422.59;4936826;29;20046;-85
2022/03/15 08:24:16;;;;;;;35.28;21.02;;;;;;;-2.93;41.89;100422.81;4953835;29;20074;-83
2022/03/15 08:26:42;;;;;;;36.90;21.90;;;;;;;-2.74;42.36;100428.78;4922664;29;20079;-83
2022/03/15 08:29:08;;;;;;;41.92;22.33;;;;;;;-2.30;42.48;100428.34;4921940;29;20527;-83
2022/03/15 08:31:34;;;;;;;45.25;23.80;;;;;;;-1.99;41.82;100426.28;4938019;29;20047;-83
2022/03/15 08:34:00;;;;;;;56.78;22.67;;;;;;;-1.78;41.27;100419.03;4922231;29;20489;-84
2022/03/15 08:36:26;;;;;;;40.92;20.40;;;;;;;-1.49;40.97;100431.75;4922061;29;20051;-81
2022/03/15 08:38:52;;;;;;;41.78;20.60;;;;;;;-1.19;40.28;100437.47;4906069;29;20050;-82
2022/03/15 08:41:18;;;;;;;34.55;21.05;;;;;;;-0.97;40.08;100431.00;4922043;29;20465;-82
2022/03/15 08:43:44;;;;;;;34.92;20.33;;;;;;;-0.59;38.76;100426.88;4938897;29;20063;-84
2022/03/15 08:46:10;;;;;;;41.20;21.20;;;;;;;-0.78;38.80;100424.56;4938537;29;20047;-82
2022/03/15 08:48:36;;;;;;;31.40;18.33;;;;;;;-0.60;38.96;100427.75;4937875;29;20058;-82
2022/03/15 08:51:02;;;;;;;29.80;18.05;;;;;;;-0.96;39.20;100432.72;4905952;29;20058;-82
2022/03/15 08:53:31;;;;;;;27.65;16.88;;;;;;;-1.08;38.96;100430.31;4905743;29;20510;-83
2022/03/15 08:55:56;;;;;;;23.08;12.98;;;;;;;-1.73;38.97;100423.34;4921563;29;20499;-83
2022/03/15 08:58:22;;;;;;;30.08;16.50;;;;;;;-2.21;39.90;100436.13;4921658;29;20151;-82
2022/03/15 09:00:49;;;;;;;27.55;15.27;;;;;;;-1.88;39.94;100439.25;4918826;29;20468;-82
2022/03/15 09:03:15;;;;;;;29.25;15.65;;;;;;;-1.64;39.91;100427.59;4935143;29;20054;-82
2022/03/15 09:05:40;;;;;;;27.98;13.77;;;;;;;-1.22;39.31;100427.88;4935112;29;20043;-81
2022/03/15 09:08:06;;;;;;;26.42;14.60;;;;;;;-0.75;39.23;100429.78;4934983;29;20048;-82
2022/03/15 09:10:33;;;;;;;29.92;13.65;;;;;;;-0.36;37.68;100424.72;4903951;29;20056;-84
2022/03/15 09:13:00;;;;;;;22.48;12.73;;;;;;;-0.47;37.54;100431.06;4938690;29;20137;-81
2022/03/15 09:15:26;;;;;;;15.60;10.77;;;;;;;-0.29;37.95;100428.97;4956204;28;20106;-82
2022/03/15 09:17:53;;;;;;;11.07;7.65;;;;;;;-0.07;37.02;100429.44;4925720;29;20114;-83
2022/03/15 09:20:19;;;;;;;16.25;8.82;;;;;;;-0.01;36.20;100431.06;4924227;29;20046;-83
2022/03/15 09:22:45;;;;;;;16.30;10.10;;;;;;;-0.08;36.96;100418.94;4939078;29;20035;-82
2022/03/15 09:25:11;;;;;;;23.38;10.35;;;;;;;0.22;36.47;100415.69;4937857;29;20058;-82
2022/03/15 09:27:37;;;;;;;23.05;12.00;;;;;;;0.45;36.12;100416.97;4937848;29;20054;-82
2022/03/15 09:30:05;;;;;;;16.35;11.10;;;;;;;0.64;36.07;100415.69;4937991;29;20183;-81
2022/03/15 09:32:31;;;;;;;16.02;10.32;;;;;;;0.54;35.59;100419.41;4938248;29;20403;-82
2022/03/15 09:34:57;;;;;;;19.08;9.07;;;;;;;0.53;35.20;100422.97;4937921;29;20074;-83
2022/03/15 09:37:24;;;;;;;19.88;10.38;;;;;;;0.49;36.04;100405.50;4922418;29;20051;-83
2022/03/15 09:39:53;;;;;;;17.38;8.70;;;;;;;0.56;35.50;100427.25;4938375;29;20058;-82
2022/03/15 09:42:22;;;;;;;14.13;9.80;;;;;;;0.50;35.84;100411.63;4937718;29;20137;-82
2022/03/15 09:44:48;;;;;;;15.13;9.53;;;;;;;0.98;35.61;100420.19;4937613;29;20050;-82
2022/03/15 09:47:17;;;;;;;15.80;8.77;;;;;;;0.70;35.06;100410.28;4953755;29;20483;-84
2022/03/15 09:49:46;;;;;;;25.42;12.20;;;;;;;0.72;35.64;100426.91;4921701;29;20057;-84
2022/03/15 09:52:15;;;;;;;15.43;10.43;;;;;;;0.76;35.10;100418.94;4922181;29;20047;-85
2022/03/15 09:54:42;;;;;;;15.65;9.55;;;;;;;1.11;35.07;100426.88;4905921;29;20138;-84
2022/03/15 09:57:09;;;;;;;16.27;10.73;;;;;;;1.01;34.64;100419.22;4953892;29;20126;-85
2022/03/15 09:59:35;;;;;;;18.42;10.55;;;;;;;0.93;36.22;100424.69;4922159;29;20047;-84
2022/03/15 10:02:01;;;;;;;19.02;13.07;;;;;;;0.87;36.08;100423.06;4921767;29;20047;-84
2022/03/15 10:04:27;;;;;;;21.15;11.90;;;;;;;0.90;36.17;100412.47;4905712;29;20057;-84
2022/03/15 10:06:58;;;;;;;16.42;11.65;;;;;;;0.89;35.94;100425.66;4921595;29;20050;-85
2022/03/15 10:09:27;;;;;;;24.88;12.48;;;;;;;1.02;36.35;100419.22;4922415;29;20043;-83
2022/03/15 10:11:53;;;;;;;17.15;11.10;;;;;;;1.41;36.05;100411.22;4921749;29;20051;-81
2022/03/15 10:14:19;;;;;;;20.67;12.15;;;;;;;1.59;35.35;100413.38;4921540;29;20055;-82
2022/03/15 10:16:49;;;;;;;18.10;10.57;;;;;;;1.68;34.58;100422.81;4921865;29;20047;-84
2022/03/15 10:19:16;;;;;;;16.42;10.40;;;;;;;1.89;34.46;100413.47;4921841;29;20073;-85
2022/03/15 10:21:46;;;;;;;27.50;10.30;;;;;;;2.02;34.88;100406.94;4953670;29;20124;-83
2022/03/15 10:24:18;;;;;;;18.05;10.20;;;;;;;1.97;34.79;100421.19;4921891;29;20070;-85
2022/03/15 10:26:47;;;;;;;14.27;9.43;;;;;;;2.16;34.03;100415.34;4937973;28;20047;-84
2022/03/15 10:29:15;;;;;;;21.17;10.85;;;;;;;2.39;33.97;100416.44;4941225;29;20124;-83
2022/03/15 10:31:42;;;;;;;19.33;10.95;;;;;;;2.53;33.39;100416.91;4957101;29;20142;-84
2022/03/15 10:34:09;;;;;;;19.10;10.75;;;;;;;2.46;34.05;100420.63;4957324;29;20043;-85
2022/03/15 10:36:46;;;;;;;20.17;10.68;;;;;;;2.72;32.94;100419.84;4941438;29;20050;-84
2022/03/15 10:39:14;;;;;;;22.20;9.68;;;;;;;2.70;33.46;100421.66;4925059;29;20053;-84
2022/03/15 10:41:49;;;;;;;20.17;9.18;;;;;;;2.88;32.64;100410.53;4940904;29;20093;-85
2022/03/15 10:44:22;;;;;;;14.07;8.88;;;;;;;2.86;32.02;100422.09;4925652;29;20043;-85
2022/03/15 10:47:08;;;;;;;12.00;8.02;;;;;;;3.28;31.99;100421.63;4925704;29;20047;-84
2022/03/15 10:49:59;;;;;;;11.55;6.47;;;;;;;3.71;30.78;100428.09;4925105;29;20043;-84
2022/03/15 10:52:32;;;;;;;12.82;6.65;;;;;;;3.68;30.64;100417.59;4957947;29;20047;-85
2022/03/15 10:55:18;;;;;;;8.85;5.40;;;;;;;3.77;29.56;100433.19;4940955;29;20051;-84
2022/03/15 10:57:45;;;;;;;14.48;7.18;;;;;;;4.03;29.90;100427.84;4957891;29;20047;-84
2022/03/15 11:00:12;;;;;;;14.93;7.47;;;;;;;4.08;30.09;100428.53;4956584;29;20047;-84
2022/03/15 11:02:42;;;;;;;12.13;7.88;;;;;;;4.24;30.56;100423.53;4924644;29;20055;-86
2022/03/15 11:05:08;;;;;;;13.57;8.73;;;;;;;4.48;30.58;100421.78;4958114;29;20051;-84
2022/03/15 11:07:42;;;;;;;16.10;7.75;;;;;;;4.52;30.23;100423.38;4940405;29;20419;-84